sensor_id;sensor_type;location;lat;lon;timestamp;pressure;altitude;pressure_sealevel;temperature;humidity
85683;BME280;76253;52.232;5.176;2024-03-02T00:02:23;99748.16;;;7.94;73.84
85683;BME280;76253;52.232;5.176;2024-03-02T00:04:48;99747.16;;;7.95;73.49
85683;BME280;76253;52.232;5.176;2024-03-02T00:07:15;99746.63;;;7.92;73.79
85683;BME280;76253;52.232;5.176;2024-03-02T00:09:41;99753.00;;;7.89;74.29
85683;BME280;76253;52.232;5.176;2024-03-02T00:12:06;99771.47;;;7.88;73.67
85683;BME280;76253;52.232;5.176;2024-03-02T00:14:32;99771.59;;;7.86;73.58
85683;BME280;76253;52.232;5.176;2024-03-02T00:16:58;99789.69;;;7.89;73.84
85683;BME280;76253;52.232;5.176;2024-03-02T00:19:24;99803.47;;;7.91;73.51
85683;BME280;76253;52.232;5.176;2024-03-02T00:21:50;99810.38;;;7.92;74.12
85683;BME280;76253;52.232;5.176;2024-03-02T00:24:20;99813.13;;;7.91;73.42
85683;BME280;76253;52.232;5.176;2024-03-02T00:26:46;99830.22;;;7.95;73.11
85683;BME280;76253;52.232;5.176;2024-03-02T00:29:15;99858.09;;;7.96;73.25
85683;BME280;76253;52.232;5.176;2024-03-02T00:31:41;99864.06;;;7.88;73.90
85683;BME280;76253;52.232;5.176;2024-03-02T00:34:06;99852.47;;;7.71;74.42
85683;BME280;76253;52.232;5.176;2024-03-02T00:36:32;99851.38;;;7.55;75.54
85683;BME280;76253;52.232;5.176;2024-03-02T00:38:58;99847.34;;;7.41;76.63
85683;BME280;76253;52.232;5.176;2024-03-02T00:41:30;99865.25;;;7.26;78.20
85683;BME280;76253;52.232;5.176;2024-03-02T00:44:06;99861.50;;;7.10;77.17
85683;BME280;76253;52.232;5.176;2024-03-02T00:46:42;99866.53;;;6.92;78.16
85683;BME280;76253;52.232;5.176;2024-03-02T00:49:22;99857.16;;;6.80;79.52
85683;BME280;76253;52.232;5.176;2024-03-02T00:51:49;99858.75;;;6.71;78.04
85683;BME280;76253;52.232;5.176;2024-03-02T00:54:15;99865.38;;;6.66;80.05
85683;BME280;76253;52.232;5.176;2024-03-02T00:56:43;99864.34;;;6.57;79.04
85683;BME280;76253;52.232;5.176;2024-03-02T00:59:10;99864.63;;;6.54;79.61
85683;BME280;76253;52.232;5.176;2024-03-02T01:01:35;99864.91;;;6.51;80.34
85683;BME280;76253;52.232;5.176;2024-03-02T01:04:01;99878.09;;;6.49;80.05
85683;BME280;76253;52.232;5.176;2024-03-02T01:06:26;99883.56;;;6.46;80.51
85683;BME280;76253;52.232;5.176;2024-03-02T01:08:51;99874.22;;;6.44;80.19
85683;BME280;76253;52.232;5.176;2024-03-02T01:11:17;99870.75;;;6.43;81.00
85683;BME280;76253;52.232;5.176;2024-03-02T01:13:44;99871.72;;;6.42;80.41
85683;BME280;76253;52.232;5.176;2024-03-02T01:16:09;99855.47;;;6.39;79.69
85683;BME280;76253;52.232;5.176;2024-03-02T01:18:35;99875.56;;;6.38;80.89
85683;BME280;76253;52.232;5.176;2024-03-02T01:21:00;99880.09;;;6.36;80.73
85683;BME280;76253;52.232;5.176;2024-03-02T01:23:26;99878.28;;;6.37;81.98
85683;BME280;76253;52.232;5.176;2024-03-02T01:25:52;99882.00;;;6.34;81.88
85683;BME280;76253;52.232;5.176;2024-03-02T01:28:18;99869.06;;;6.33;81.18
85683;BME280;76253;52.232;5.176;2024-03-02T01:30:45;99877.84;;;6.32;81.12
85683;BME280;76253;52.232;5.176;2024-03-02T01:33:10;99895.19;;;6.33;81.10
85683;BME280;76253;52.232;5.176;2024-03-02T01:35:36;99879.50;;;6.33;80.88
85683;BME280;76253;52.232;5.176;2024-03-02T01:38:02;99881.16;;;6.34;82.91
85683;BME280;76253;52.232;5.176;2024-03-02T01:40:28;99884.88;;;6.31;81.96
85683;BME280;76253;52.232;5.176;2024-03-02T01:42:53;99890.25;;;6.30;82.24
85683;BME280;76253;52.232;5.176;2024-03-02T01:45:21;99887.75;;;6.28;81.58
85683;BME280;76253;52.232;5.176;2024-03-02T01:47:47;99875.63;;;6.27;80.65
85683;BME280;76253;52.232;5.176;2024-03-02T01:50:13;99876.44;;;6.28;80.86
85683;BME280;76253;52.232;5.176;2024-03-02T01:52:39;99886.06;;;6.27;81.05
85683;BME280;76253;52.232;5.176;2024-03-02T01:55:05;99894.91;;;6.26;81.07
85683;BME280;76253;52.232;5.176;2024-03-02T01:57:31;99881.25;;;6.23;81.58
85683;BME280;76253;52.232;5.176;2024-03-02T01:59:57;99906.44;;;6.24;81.67
85683;BME280;76253;52.232;5.176;2024-03-02T02:02:22;99908.22;;;6.23;82.09
85683;BME280;76253;52.232;5.176;2024-03-02T02:04:48;99907.75;;;6.18;82.30
85683;BME280;76253;52.232;5.176;2024-03-02T02:07:13;99905.31;;;6.17;82.53
85683;BME280;76253;52.232;5.176;2024-03-02T02:09:41;99897.56;;;6.15;82.83
85683;BME280;76253;52.232;5.176;2024-03-02T02:12:06;99899.63;;;6.12;81.74
85683;BME280;76253;52.232;5.176;2024-03-02T02:14:34;99893.81;;;6.08;83.12
85683;BME280;76253;52.232;5.176;2024-03-02T02:16:59;99899.97;;;6.07;82.60
85683;BME280;76253;52.232;5.176;2024-03-02T02:19:25;99913.44;;;6.02;83.47
85683;BME280;76253;52.232;5.176;2024-03-02T02:21:50;99919.63;;;6.01;83.39
85683;BME280;76253;52.232;5.176;2024-03-02T02:24:16;99912.75;;;6.00;82.97
85683;BME280;76253;52.232;5.176;2024-03-02T02:26:41;99889.59;;;5.96;82.99
85683;BME280;76253;52.232;5.176;2024-03-02T02:29:06;99886.16;;;5.95;82.44
85683;BME280;76253;52.232;5.176;2024-03-02T02:31:41;99885.22;;;5.96;83.26
85683;BME280;76253;52.232;5.176;2024-03-02T02:34:07;99890.44;;;5.96;82.94
85683;BME280;76253;52.232;5.176;2024-03-02T02:36:37;99893.16;;;5.95;82.58
85683;BME280;76253;52.232;5.176;2024-03-02T02:39:04;99896.03;;;5.92;82.95
85683;BME280;76253;52.232;5.176;2024-03-02T02:41:30;99893.28;;;5.93;82.62
85683;BME280;76253;52.232;5.176;2024-03-02T02:43:56;99902.34;;;5.89;83.22
85683;BME280;76253;52.232;5.176;2024-03-02T02:46:21;99901.28;;;5.92;82.54
85683;BME280;76253;52.232;5.176;2024-03-02T02:48:46;99899.84;;;5.88;83.12
85683;BME280;76253;52.232;5.176;2024-03-02T02:51:11;99914.56;;;5.89;83.46
85683;BME280;76253;52.232;5.176;2024-03-02T02:53:37;99900.19;;;5.83;83.18
85683;BME280;76253;52.232;5.176;2024-03-02T02:56:06;99899.34;;;5.83;83.25
85683;BME280;76253;52.232;5.176;2024-03-02T02:58:31;99914.47;;;5.79;82.99
85683;BME280;76253;52.232;5.176;2024-03-02T03:00:57;99912.56;;;5.81;83.04
85683;BME280;76253;52.232;5.176;2024-03-02T03:03:22;99908.16;;;5.82;82.86
85683;BME280;76253;52.232;5.176;2024-03-02T03:05:48;99898.78;;;5.79;82.67
85683;BME280;76253;52.232;5.176;2024-03-02T03:08:13;99917.63;;;5.83;83.59
85683;BME280;76253;52.232;5.176;2024-03-02T03:10:39;99902.59;;;5.75;83.40
85683;BME280;76253;52.232;5.176;2024-03-02T03:13:05;99915.56;;;5.77;83.84
85683;BME280;76253;52.232;5.176;2024-03-02T03:15:34;99907.00;;;5.75;84.41
85683;BME280;76253;52.232;5.176;2024-03-02T03:17:59;99909.50;;;5.76;84.10
85683;BME280;76253;52.232;5.176;2024-03-02T03:20:25;99915.78;;;5.74;83.45
85683;BME280;76253;52.232;5.176;2024-03-02T03:22:50;99921.94;;;5.73;83.56
85683;BME280;76253;52.232;5.176;2024-03-02T03:25:16;99917.72;;;5.72;83.85
85683;BME280;76253;52.232;5.176;2024-03-02T03:27:41;99925.16;;;5.76;83.95
85683;BME280;76253;52.232;5.176;2024-03-02T03:30:07;99928.84;;;5.74;83.62
85683;BME280;76253;52.232;5.176;2024-03-02T03:32:32;99921.94;;;5.73;82.96
85683;BME280;76253;52.232;5.176;2024-03-02T03:34:58;99925.16;;;5.76;83.55
85683;BME280;76253;52.232;5.176;2024-03-02T03:37:23;99912.34;;;5.73;83.00
85683;BME280;76253;52.232;5.176;2024-03-02T03:39:49;99932.75;;;5.79;83.40
85683;BME280;76253;52.232;5.176;2024-03-02T03:42:14;99929.31;;;5.79;83.28
85683;BME280;76253;52.232;5.176;2024-03-02T03:44:40;99932.16;;;5.76;83.41
85683;BME280;76253;52.232;5.176;2024-03-02T03:47:06;99933.13;;;5.75;82.88
85683;BME280;76253;52.232;5.176;2024-03-02T03:49:32;99935.72;;;5.75;82.84
85683;BME280;76253;52.232;5.176;2024-03-02T03:51:57;99924.56;;;5.73;82.94
85683;BME280;76253;52.232;5.176;2024-03-02T03:54:22;99939.06;;;5.77;82.93
85683;BME280;76253;52.232;5.176;2024-03-02T03:56:48;99951.03;;;5.79;82.85
85683;BME280;76253;52.232;5.176;2024-03-02T03:59:14;99946.06;;;5.76;83.08
85683;BME280;76253;52.232;5.176;2024-03-02T04:01:39;99942.81;;;5.84;82.99
85683;BME280;76253;52.232;5.176;2024-03-02T04:04:05;99943.75;;;5.83;82.62
85683;BME280;76253;52.232;5.176;2024-03-02T04:06:30;99947.09;;;5.85;82.77
85683;BME280;76253;52.232;5.176;2024-03-02T04:08:56;99944.47;;;5.85;82.99
85683;BME280;76253;52.232;5.176;2024-03-02T04:11:21;99955.69;;;5.87;82.35
85683;BME280;76253;52.232;5.176;2024-03-02T04:13:47;99946.97;;;5.86;82.93
85683;BME280;76253;52.232;5.176;2024-03-02T04:16:12;99956.59;;;5.86;82.49
85683;BME280;76253;52.232;5.176;2024-03-02T04:18:37;99957.22;;;5.89;82.36
85683;BME280;76253;52.232;5.176;2024-03-02T04:21:04;99955.44;;;5.90;82.96
85683;BME280;76253;52.232;5.176;2024-03-02T04:23:30;99947.59;;;5.90;82.44
85683;BME280;76253;52.232;5.176;2024-03-02T04:25:55;99951.03;;;5.90;82.17
85683;BME280;76253;52.232;5.176;2024-03-02T04:28:20;99953.38;;;5.93;82.43
85683;BME280;76253;52.232;5.176;2024-03-02T04:30:46;99948.16;;;5.93;82.73
85683;BME280;76253;52.232;5.176;2024-03-02T04:33:11;99955.16;;;5.93;82.94
85683;BME280;76253;52.232;5.176;2024-03-02T04:35:36;99952.69;;;5.91;82.72
85683;BME280;76253;52.232;5.176;2024-03-02T04:38:02;99956.25;;;5.90;82.30
85683;BME280;76253;52.232;5.176;2024-03-02T04:40:28;99944.13;;;5.78;82.71
85683;BME280;76253;52.232;5.176;2024-03-02T04:42:54;99952.69;;;5.80;82.36
85683;BME280;76253;52.232;5.176;2024-03-02T04:45:20;99963.84;;;5.82;82.81
85683;BME280;76253;52.232;5.176;2024-03-02T04:47:45;99967.44;;;5.81;82.79
85683;BME280;76253;52.232;5.176;2024-03-02T04:50:13;99959.97;;;5.77;82.41
85683;BME280;76253;52.232;5.176;2024-03-02T04:52:39;99971.34;;;5.76;82.08
85683;BME280;76253;52.232;5.176;2024-03-02T04:55:04;99971.13;;;5.68;82.29
85683;BME280;76253;52.232;5.176;2024-03-02T04:57:50;99969.72;;;5.63;82.47
85683;BME280;76253;52.232;5.176;2024-03-02T05:00:16;99972.84;;;5.57;82.52
85683;BME280;76253;52.232;5.176;2024-03-02T05:02:42;99982.69;;;5.54;82.16
85683;BME280;76253;52.232;5.176;2024-03-02T05:05:08;99984.72;;;5.50;82.08
85683;BME280;76253;52.232;5.176;2024-03-02T05:07:33;99978.91;;;5.47;82.16
85683;BME280;76253;52.232;5.176;2024-03-02T05:09:58;99979.97;;;5.44;82.25
85683;BME280;76253;52.232;5.176;2024-03-02T05:12:24;99984.13;;;5.47;82.69
85683;BME280;76253;52.232;5.176;2024-03-02T05:15:11;99982.47;;;5.46;82.10
85683;BME280;76253;52.232;5.176;2024-03-02T05:17:37;99987.91;;;5.43;82.75
85683;BME280;76253;52.232;5.176;2024-03-02T05:20:05;99997.09;;;5.37;83.18
85683;BME280;76253;52.232;5.176;2024-03-02T05:22:31;99993.16;;;5.32;82.54
85683;BME280;76253;52.232;5.176;2024-03-02T05:24:56;99991.97;;;5.25;82.54
85683;BME280;76253;52.232;5.176;2024-03-02T05:27:22;99996.84;;;5.18;82.95
85683;BME280;76253;52.232;5.176;2024-03-02T05:29:47;99991.84;;;5.15;82.69
85683;BME280;76253;52.232;5.176;2024-03-02T05:32:13;99990.81;;;5.06;82.87
85683;BME280;76253;52.232;5.176;2024-03-02T05:34:38;100004.06;;;5.03;82.93
85683;BME280;76253;52.232;5.176;2024-03-02T05:37:03;99994.13;;;4.97;82.95
85683;BME280;76253;52.232;5.176;2024-03-02T05:39:29;99996.84;;;4.96;82.43
85683;BME280;76253;52.232;5.176;2024-03-02T05:41:54;99990.06;;;4.82;82.85
85683;BME280;76253;52.232;5.176;2024-03-02T05:44:20;100009.03;;;4.84;82.46
85683;BME280;76253;52.232;5.176;2024-03-02T05:46:45;100009.03;;;4.84;82.27
85683;BME280;76253;52.232;5.176;2024-03-02T05:49:11;100002.97;;;4.84;82.76
85683;BME280;76253;52.232;5.176;2024-03-02T05:51:36;100010.09;;;4.82;83.13
85683;BME280;76253;52.232;5.176;2024-03-02T05:54:02;100004.31;;;4.78;83.40
85683;BME280;76253;52.232;5.176;2024-03-02T05:56:27;100014.13;;;4.86;83.18
85683;BME280;76253;52.232;5.176;2024-03-02T05:58:54;100009.75;;;4.86;82.83
85683;BME280;76253;52.232;5.176;2024-03-02T06:01:47;100013.19;;;4.87;82.86
85683;BME280;76253;52.232;5.176;2024-03-02T06:04:14;100015.91;;;4.85;83.07
85683;BME280;76253;52.232;5.176;2024-03-02T06:06:40;100013.56;;;4.82;83.23
85683;BME280;76253;52.232;5.176;2024-03-02T06:09:06;100014.13;;;4.86;82.86
85683;BME280;76253;52.232;5.176;2024-03-02T06:11:36;100020.91;;;4.88;83.11
85683;BME280;76253;52.232;5.176;2024-03-02T06:14:03;100027.56;;;4.92;82.75
85683;BME280;76253;52.232;5.176;2024-03-02T06:16:28;100028.88;;;4.98;83.11
85683;BME280;76253;52.232;5.176;2024-03-02T06:18:55;100024.34;;;5.00;82.52
85683;BME280;76253;52.232;5.176;2024-03-02T06:21:23;100029.09;;;5.06;82.66
85683;BME280;76253;52.232;5.176;2024-03-02T06:23:48;100033.13;;;5.10;82.81
85683;BME280;76253;52.232;5.176;2024-03-02T06:26:14;100024.84;;;5.16;82.66
85683;BME280;76253;52.232;5.176;2024-03-02T06:28:39;100027.34;;;5.17;82.56
85683;BME280;76253;52.232;5.176;2024-03-02T06:31:05;100038.47;;;5.19;82.73
85683;BME280;76253;52.232;5.176;2024-03-02T06:33:30;100039.22;;;5.21;82.49
85683;BME280;76253;52.232;5.176;2024-03-02T06:35:55;100043.22;;;5.26;83.02
85683;BME280;76253;52.232;5.176;2024-03-02T06:38:21;100050.97;;;5.27;82.81
85683;BME280;76253;52.232;5.176;2024-03-02T06:40:47;100045.38;;;5.32;82.62
85683;BME280;76253;52.232;5.176;2024-03-02T06:43:12;100046.06;;;5.34;82.63
85683;BME280;76253;52.232;5.176;2024-03-02T06:45:38;100044.44;;;5.33;82.56
85683;BME280;76253;52.232;5.176;2024-03-02T06:48:05;100048.56;;;5.35;82.58
85683;BME280;76253;52.232;5.176;2024-03-02T06:50:30;100046.91;;;5.34;82.09
85683;BME280;76253;52.232;5.176;2024-03-02T06:52:56;100045.50;;;5.41;82.67
85683;BME280;76253;52.232;5.176;2024-03-02T06:55:21;100044.88;;;5.49;81.74
85683;BME280;76253;52.232;5.176;2024-03-02T06:57:47;100068.03;;;5.53;82.22
85683;BME280;76253;52.232;5.176;2024-03-02T07:00:15;100059.13;;;5.56;82.14
85683;BME280;76253;52.232;5.176;2024-03-02T07:02:40;100051.41;;;5.54;81.53
85683;BME280;76253;52.232;5.176;2024-03-02T07:05:06;100053.91;;;5.56;81.76
85683;BME280;76253;52.232;5.176;2024-03-02T07:07:33;100048.81;;;5.54;81.46
85683;BME280;76253;52.232;5.176;2024-03-02T07:10:04;100054.97;;;5.53;81.41
85683;BME280;76253;52.232;5.176;2024-03-02T07:12:29;100056.88;;;5.51;81.71
85683;BME280;76253;52.232;5.176;2024-03-02T07:14:56;100051.41;;;5.54;81.55
85683;BME280;76253;52.232;5.176;2024-03-02T07:17:30;100045.97;;;5.57;81.37
85683;BME280;76253;52.232;5.176;2024-03-02T07:19:56;100048.44;;;5.59;81.73
85683;BME280;76253;52.232;5.176;2024-03-02T07:22:23;100048.22;;;5.62;81.27
85683;BME280;76253;52.232;5.176;2024-03-02T07:24:50;100051.03;;;5.70;80.54
85683;BME280;76253;52.232;5.176;2024-03-02T07:27:17;100057.69;;;5.74;81.60
85683;BME280;76253;52.232;5.176;2024-03-02T07:29:43;100067.66;;;5.80;81.24
85683;BME280;76253;52.232;5.176;2024-03-02T07:32:09;100066.47;;;5.84;81.46
85683;BME280;76253;52.232;5.176;2024-03-02T07:34:36;100074.78;;;5.89;81.33
85683;BME280;76253;52.232;5.176;2024-03-02T07:37:01;100073.00;;;5.90;80.44
85683;BME280;76253;52.232;5.176;2024-03-02T07:39:28;100072.66;;;5.94;80.02
85683;BME280;76253;52.232;5.176;2024-03-02T07:41:54;100070.28;;;5.91;80.39
85683;BME280;76253;52.232;5.176;2024-03-02T07:44:23;100076.94;;;5.95;80.63
85683;BME280;76253;52.232;5.176;2024-03-02T07:46:49;100079.84;;;6.02;80.36
85683;BME280;76253;52.232;5.176;2024-03-02T07:49:18;100077.41;;;6.00;79.45
85683;BME280;76253;52.232;5.176;2024-03-02T07:51:46;100083.00;;;5.96;80.28
85683;BME280;76253;52.232;5.176;2024-03-02T07:54:12;100089.88;;;5.97;80.52
85683;BME280;76253;52.232;5.176;2024-03-02T07:56:37;100091.66;;;5.96;79.95
85683;BME280;76253;52.232;5.176;2024-03-02T07:59:03;100096.16;;;5.94;79.69
85683;BME280;76253;52.232;5.176;2024-03-02T08:01:32;100094.63;;;5.92;80.16
85683;BME280;76253;52.232;5.176;2024-03-02T08:04:01;100097.25;;;5.92;79.48
85683;BME280;76253;52.232;5.176;2024-03-02T08:06:28;100098.78;;;5.94;79.14
85683;BME280;76253;52.232;5.176;2024-03-02T08:08:55;100106.63;;;5.94;79.41
85683;BME280;76253;52.232;5.176;2024-03-02T08:11:21;100087.84;;;5.89;79.58
85683;BME280;76253;52.232;5.176;2024-03-02T08:13:47;100095.31;;;5.94;78.20
85683;BME280;76253;52.232;5.176;2024-03-02T08:16:13;100103.16;;;5.94;79.38
85683;BME280;76253;52.232;5.176;2024-03-02T08:18:38;100104.47;;;5.99;78.89
85683;BME280;76253;52.232;5.176;2024-03-02T08:21:04;100098.75;;;6.05;79.75
85683;BME280;76253;52.232;5.176;2024-03-02T08:23:29;100105.41;;;6.10;79.62
85683;BME280;76253;52.232;5.176;2024-03-02T08:25:56;100094.47;;;6.16;79.25
85683;BME280;76253;52.232;5.176;2024-03-02T08:28:22;100102.78;;;6.21;79.27
85683;BME280;76253;52.232;5.176;2024-03-02T08:30:47;100085.38;;;6.31;79.38
85683;BME280;76253;52.232;5.176;2024-03-02T08:33:13;100089.53;;;6.33;79.47
85683;BME280;76253;52.232;5.176;2024-03-02T08:35:39;100095.56;;;6.45;77.96
85683;BME280;76253;52.232;5.176;2024-03-02T08:38:04;100081.16;;;6.50;78.68
85683;BME280;76253;52.232;5.176;2024-03-02T08:40:30;100086.69;;;6.57;78.02
85683;BME280;76253;52.232;5.176;2024-03-02T08:42:55;100085.25;;;6.64;78.04
85683;BME280;76253;52.232;5.176;2024-03-02T08:45:21;100088.31;;;6.69;78.09
85683;BME280;76253;52.232;5.176;2024-03-02T08:47:46;100090.56;;;6.74;78.24
85683;BME280;76253;52.232;5.176;2024-03-02T08:50:14;100085.66;;;6.80;78.11
85683;BME280;76253;52.232;5.176;2024-03-02T08:52:39;100076.59;;;6.84;77.85
85683;BME280;76253;52.232;5.176;2024-03-02T08:55:05;100085.56;;;6.91;77.16
85683;BME280;76253;52.232;5.176;2024-03-02T08:57:32;100079.38;;;6.92;77.31
85683;BME280;76253;52.232;5.176;2024-03-02T08:59:57;100084.22;;;6.97;78.01
85683;BME280;76253;52.232;5.176;2024-03-02T09:02:23;100090.88;;;7.01;77.27
85683;BME280;76253;52.232;5.176;2024-03-02T09:04:48;100094.66;;;7.08;78.17
85683;BME280;76253;52.232;5.176;2024-03-02T09:07:14;100108.44;;;7.10;77.42
85683;BME280;76253;52.232;5.176;2024-03-02T09:09:40;100107.06;;;7.16;76.05
85683;BME280;76253;52.232;5.176;2024-03-02T09:12:06;100100.50;;;7.21;76.67
85683;BME280;76253;52.232;5.176;2024-03-02T09:14:32;100103.00;;;7.23;77.09
85683;BME280;76253;52.232;5.176;2024-03-02T09:16:58;100099.44;;;7.24;76.69
85683;BME280;76253;52.232;5.176;2024-03-02T09:19:23;100102.34;;;7.30;77.11
85683;BME280;76253;52.232;5.176;2024-03-02T09:21:48;100110.63;;;7.35;76.75
85683;BME280;76253;52.232;5.176;2024-03-02T09:24:15;100113.47;;;7.44;76.60
85683;BME280;76253;52.232;5.176;2024-03-02T09:26:41;100109.88;;;7.45;75.39
85683;BME280;76253;52.232;5.176;2024-03-02T09:29:07;100115.69;;;7.48;75.46
85683;BME280;76253;52.232;5.176;2024-03-02T09:31:32;100118.03;;;7.51;75.48
85683;BME280;76253;52.232;5.176;2024-03-02T09:33:57;100117.06;;;7.52;74.86
85683;BME280;76253;52.232;5.176;2024-03-02T09:36:23;100112.97;;;7.59;75.26
85683;BME280;76253;52.232;5.176;2024-03-02T09:38:48;100112.88;;;7.70;75.96
85683;BME280;76253;52.232;5.176;2024-03-02T09:41:14;100121.31;;;7.74;75.40
85683;BME280;76253;52.232;5.176;2024-03-02T09:43:42;100116.34;;;7.80;75.08
85683;BME280;76253;52.232;5.176;2024-03-02T09:46:10;100116.94;;;7.84;74.39
85683;BME280;76253;52.232;5.176;2024-03-02T09:48:36;100123.28;;;7.91;75.17
85683;BME280;76253;52.232;5.176;2024-03-02T09:51:01;100114.19;;;7.95;74.10
85683;BME280;76253;52.232;5.176;2024-03-02T09:53:32;100110.91;;;8.03;72.73
85683;BME280;76253;52.232;5.176;2024-03-02T09:56:02;100118.25;;;8.09;73.01
85683;BME280;76253;52.232;5.176;2024-03-02T09:58:28;100120.19;;;8.16;74.02
85683;BME280;76253;52.232;5.176;2024-03-02T10:00:53;100124.50;;;8.27;73.89
85683;BME280;76253;52.232;5.176;2024-03-02T10:03:19;100114.19;;;8.35;73.75
85683;BME280;76253;52.232;5.176;2024-03-02T10:05:44;100109.22;;;8.42;74.13
85683;BME280;76253;52.232;5.176;2024-03-02T10:08:10;100104.66;;;8.44;70.77
85683;BME280;76253;52.232;5.176;2024-03-02T10:10:37;100114.88;;;8.47;71.80
85683;BME280;76253;52.232;5.176;2024-03-02T10:13:07;100120.44;;;8.53;72.52
85683;BME280;76253;52.232;5.176;2024-03-02T10:15:33;100128.56;;;8.60;72.10
85683;BME280;76253;52.232;5.176;2024-03-02T10:17:59;100100.81;;;8.67;70.70
85683;BME280;76253;52.232;5.176;2024-03-02T10:20:27;100110.19;;;8.70;70.71
85683;BME280;76253;52.232;5.176;2024-03-02T10:23:17;100108.25;;;8.72;69.60
85683;BME280;76253;52.232;5.176;2024-03-02T10:25:45;100111.56;;;8.74;70.51
85683;BME280;76253;52.232;5.176;2024-03-02T10:28:10;100101.63;;;8.77;71.70
85683;BME280;76253;52.232;5.176;2024-03-02T10:30:36;100114.47;;;8.90;71.00
85683;BME280;76253;52.232;5.176;2024-03-02T10:33:01;100106.31;;;8.93;63.77
85683;BME280;76253;52.232;5.176;2024-03-02T10:35:27;100102.97;;;9.00;68.67
85683;BME280;76253;52.232;5.176;2024-03-02T10:37:53;100109.19;;;8.99;68.99
85683;BME280;76253;52.232;5.176;2024-03-02T10:40:22;100106.31;;;9.02;66.99
85683;BME280;76253;52.232;5.176;2024-03-02T10:42:50;100106.13;;;9.14;69.19
85683;BME280;76253;52.232;5.176;2024-03-02T10:45:19;100104.75;;;9.19;68.37
85683;BME280;76253;52.232;5.176;2024-03-02T10:47:49;100096.88;;;9.19;67.64
85683;BME280;76253;52.232;5.176;2024-03-02T10:50:15;100088.28;;;9.27;67.14
85683;BME280;76253;52.232;5.176;2024-03-02T10:52:40;100102.53;;;9.24;62.14
85683;BME280;76253;52.232;5.176;2024-03-02T10:55:06;100083.66;;;9.38;67.86
85683;BME280;76253;52.232;5.176;2024-03-02T10:57:53;100088.91;;;9.38;66.16
85683;BME280;76253;52.232;5.176;2024-03-02T11:00:21;100081.16;;;9.46;66.98
85683;BME280;76253;52.232;5.176;2024-03-02T11:03:05;100078.53;;;9.46;65.33
85683;BME280;76253;52.232;5.176;2024-03-02T11:05:36;100080.72;;;9.51;66.37
85683;BME280;76253;52.232;5.176;2024-03-02T11:08:08;100077.50;;;9.57;65.76
85683;BME280;76253;52.232;5.176;2024-03-02T11:10:41;100074.47;;;9.62;67.23
85683;BME280;76253;52.232;5.176;2024-03-02T11:13:11;100085.47;;;9.75;67.69
85683;BME280;76253;52.232;5.176;2024-03-02T11:15:39;100081.03;;;9.75;68.39
85683;BME280;76253;52.232;5.176;2024-03-02T11:18:06;100076.38;;;9.87;67.76
85683;BME280;76253;52.232;5.176;2024-03-02T11:20:38;100079.13;;;9.95;66.14
85683;BME280;76253;52.232;5.176;2024-03-02T11:23:05;100077.84;;;9.99;67.32
85683;BME280;76253;52.232;5.176;2024-03-02T11:25:32;100098.53;;;10.12;67.03
85683;BME280;76253;52.232;5.176;2024-03-02T11:28:06;100087.50;;;10.08;65.11
85683;BME280;76253;52.232;5.176;2024-03-02T11:33:06;100069.31;;;10.15;66.26
85683;BME280;76253;52.232;5.176;2024-03-02T11:35:33;100081.47;;;10.25;66.02
85683;BME280;76253;52.232;5.176;2024-03-02T11:37:58;100071.31;;;10.30;66.01
85683;BME280;76253;52.232;5.176;2024-03-02T11:40:27;100062.16;;;10.34;60.93
85683;BME280;76253;52.232;5.176;2024-03-02T11:42:53;100080.25;;;10.37;65.52
85683;BME280;76253;52.232;5.176;2024-03-02T11:45:22;100068.53;;;10.32;60.82
85683;BME280;76253;52.232;5.176;2024-03-02T11:47:52;100084.09;;;10.43;65.67
85683;BME280;76253;52.232;5.176;2024-03-02T11:50:35;100054.41;;;10.51;63.07
85683;BME280;76253;52.232;5.176;2024-03-02T11:53:03;100066.34;;;10.63;65.35
85683;BME280;76253;52.232;5.176;2024-03-02T11:55:35;100062.25;;;10.86;64.94
85683;BME280;76253;52.232;5.176;2024-03-02T11:58:02;100063.81;;;11.22;65.99
85683;BME280;76253;52.232;5.176;2024-03-02T12:00:27;100056.88;;;11.81;67.96
85683;BME280;76253;52.232;5.176;2024-03-02T12:05:30;100062.78;;;12.98;68.30
85683;BME280;76253;52.232;5.176;2024-03-02T12:08:04;100053.47;;;13.43;68.16
85683;BME280;76253;52.232;5.176;2024-03-02T12:10:30;100054.31;;;14.13;69.41
85683;BME280;76253;52.232;5.176;2024-03-02T12:13:00;100050.16;;;14.41;67.98
85683;BME280;76253;52.232;5.176;2024-03-02T12:15:27;100052.66;;;14.80;68.88
85683;BME280;76253;52.232;5.176;2024-03-02T12:17:54;100030.91;;;14.70;65.13
85683;BME280;76253;52.232;5.176;2024-03-02T12:20:21;100023.22;;;14.75;64.62
85683;BME280;76253;52.232;5.176;2024-03-02T12:22:53;100031.97;;;14.98;63.35
85683;BME280;76253;52.232;5.176;2024-03-02T12:25:23;100027.31;;;15.15;60.18
85683;BME280;76253;52.232;5.176;2024-03-02T12:27:53;100013.19;;;15.52;63.13
85683;BME280;76253;52.232;5.176;2024-03-02T12:30:20;100010.13;;;16.06;64.04
85683;BME280;76253;52.232;5.176;2024-03-02T12:32:46;100003.69;;;16.36;62.74
85683;BME280;76253;52.232;5.176;2024-03-02T12:35:13;100007.91;;;16.73;62.49
85683;BME280;76253;52.232;5.176;2024-03-02T12:37:47;99998.47;;;16.98;59.06
85683;BME280;76253;52.232;5.176;2024-03-02T12:40:15;100019.63;;;17.06;59.96
85683;BME280;76253;52.232;5.176;2024-03-02T12:42:42;100002.22;;;17.04;57.65
85683;BME280;76253;52.232;5.176;2024-03-02T12:45:08;99999.28;;;17.26;57.58
85683;BME280;76253;52.232;5.176;2024-03-02T12:47:34;99996.38;;;17.56;57.21
85683;BME280;76253;52.232;5.176;2024-03-02T12:50:00;99997.41;;;17.61;55.24
85683;BME280;76253;52.232;5.176;2024-03-02T12:52:27;99988.53;;;17.89;54.48
85683;BME280;76253;52.232;5.176;2024-03-02T12:54:53;99991.88;;;18.37;55.93
85683;BME280;76253;52.232;5.176;2024-03-02T12:57:31;99990.84;;;18.25;50.38
85683;BME280;76253;52.232;5.176;2024-03-02T13:00:01;99997.88;;;18.59;52.68
85683;BME280;76253;52.232;5.176;2024-03-02T13:02:28;99992.13;;;18.88;52.37
85683;BME280;76253;52.232;5.176;2024-03-02T13:04:55;99981.03;;;19.04;51.82
85683;BME280;76253;52.232;5.176;2024-03-02T13:07:21;99976.63;;;19.29;51.99
85683;BME280;76253;52.232;5.176;2024-03-02T13:09:49;99982.78;;;19.36;51.96